sensor_id;sensor_type;location;lat;lon;timestamp;noise_LAeq;noise_LA_min;noise_LA_max;noise_LA01;noise_LA95
72686;Laerm;61365;52.162;4.500;2023-02-23T00:01:28;45.04;37.49;57.96;;
72686;Laerm;61365;52.162;4.500;2023-02-23T00:03:57;45.33;36.67;59.39;;
72686;Laerm;61365;52.162;4.500;2023-02-23T00:07:01;45.23;37.15;58.21;;
72686;Laerm;61365;52.162;4.500;2023-02-23T00:09:28;45.29;36.90;58.87;;
72686;Laerm;61365;52.162;4.500;2023-02-23T00:12:03;45.30;36.80;58.14;;
72686;Laerm;61365;52.162;4.500;2023-02-23T00:14:34;45.34;36.57;59.21;;
72686;Laerm;61365;52.162;4.500;2023-02-23T00:17:02;45.41;37.04;57.84;;
72686;Laerm;61365;52.162;4.500;2023-02-23T00:19:29;45.11;37.06;58.06;;
72686;Laerm;61365;52.162;4.500;2023-02-23T00:21:58;45.14;36.75;57.00;;
72686;Laerm;61365;52.162;4.500;2023-02-23T00:24:24;45.32;37.19;59.42;;
72686;Laerm;61365;52.162;4.500;2023-02-23T00:26:51;45.35;36.97;58.84;;
72686;Laerm;61365;52.162;4.500;2023-02-23T00:29:22;45.20;36.71;58.01;;
72686;Laerm;61365;52.162;4.500;2023-02-23T00:31:51;45.08;36.94;57.89;;
72686;Laerm;61365;52.162;4.500;2023-02-23T00:34:19;45.15;37.24;58.76;;
72686;Laerm;61365;52.162;4.500;2023-02-23T00:36:50;45.25;36.50;58.74;;
72686;Laerm;61365;52.162;4.500;2023-02-23T00:39:19;45.16;36.09;62.98;;
72686;Laerm;61365;52.162;4.500;2023-02-23T00:41:53;45.19;36.69;57.87;;
72686;Laerm;61365;52.162;4.500;2023-02-23T00:44:22;47.31;34.67;57.79;;
72686;Laerm;61365;52.162;4.500;2023-02-23T00:46:50;47.29;36.32;58.73;;
72686;Laerm;61365;52.162;4.500;2023-02-23T00:49:18;45.19;36.77;58.20;;
72686;Laerm;61365;52.162;4.500;2023-02-23T00:51:45;45.36;37.27;59.32;;
72686;Laerm;61365;52.162;4.500;2023-02-23T00:54:13;45.23;37.30;57.75;;
72686;Laerm;61365;52.162;4.500;2023-02-23T00:56:41;45.37;36.29;58.50;;
72686;Laerm;61365;52.162;4.500;2023-02-23T00:59:07;45.21;36.20;59.46;;
72686;Laerm;61365;52.162;4.500;2023-02-23T01:01:34;45.09;36.62;58.54;;
72686;Laerm;61365;52.162;4.500;2023-02-23T01:04:03;45.27;37.11;58.03;;
72686;Laerm;61365;52.162;4.500;2023-02-23T01:06:29;45.19;37.48;57.69;;
72686;Laerm;61365;52.162;4.500;2023-02-23T01:08:56;45.46;36.88;58.70;;
72686;Laerm;61365;52.162;4.500;2023-02-23T01:11:26;45.26;36.93;58.03;;
72686;Laerm;61365;52.162;4.500;2023-02-23T01:13:56;45.40;37.06;58.43;;
72686;Laerm;61365;52.162;4.500;2023-02-23T01:16:28;45.17;37.00;60.30;;
72686;Laerm;61365;52.162;4.500;2023-02-23T01:18:58;47.06;36.67;58.63;;
72686;Laerm;61365;52.162;4.500;2023-02-23T01:21:32;46.03;37.13;58.42;;
72686;Laerm;61365;52.162;4.500;2023-02-23T01:23:59;45.39;37.16;58.80;;
72686;Laerm;61365;52.162;4.500;2023-02-23T01:26:31;45.25;37.03;60.28;;
72686;Laerm;61365;52.162;4.500;2023-02-23T01:29:06;45.40;36.93;61.25;;
72686;Laerm;61365;52.162;4.500;2023-02-23T01:31:39;47.01;36.67;58.42;;
72686;Laerm;61365;52.162;4.500;2023-02-23T01:34:09;47.69;36.63;59.35;;
72686;Laerm;61365;52.162;4.500;2023-02-23T01:36:38;46.55;36.23;58.93;;
72686;Laerm;61365;52.162;4.500;2023-02-23T01:39:11;45.33;37.02;57.87;;
72686;Laerm;61365;52.162;4.500;2023-02-23T01:41:38;45.18;37.04;57.16;;
72686;Laerm;61365;52.162;4.500;2023-02-23T01:46:56;45.09;37.05;57.67;;
72686;Laerm;61365;52.162;4.500;2023-02-23T01:49:27;45.29;36.80;57.44;;
72686;Laerm;61365;52.162;4.500;2023-02-23T01:52:02;45.21;36.66;59.11;;
72686;Laerm;61365;52.162;4.500;2023-02-23T01:54:34;45.23;36.80;58.62;;
72686;Laerm;61365;52.162;4.500;2023-02-23T01:57:04;45.14;36.82;58.46;;
72686;Laerm;61365;52.162;4.500;2023-02-23T01:59:40;45.17;36.78;56.87;;
72686;Laerm;61365;52.162;4.500;2023-02-23T02:02:08;45.30;37.09;57.81;;
72686;Laerm;61365;52.162;4.500;2023-02-23T02:04:38;45.32;36.87;57.64;;
72686;Laerm;61365;52.162;4.500;2023-02-23T02:07:16;45.31;36.84;59.22;;
72686;Laerm;61365;52.162;4.500;2023-02-23T02:09:46;45.23;37.23;57.61;;
72686;Laerm;61365;52.162;4.500;2023-02-23T02:12:32;45.32;36.41;58.02;;
72686;Laerm;61365;52.162;4.500;2023-02-23T02:14:59;45.32;37.09;57.07;;
72686;Laerm;61365;52.162;4.500;2023-02-23T02:18:14;45.21;36.93;58.07;;
72686;Laerm;61365;52.162;4.500;2023-02-23T02:24:25;45.25;36.94;57.91;;
72686;Laerm;61365;52.162;4.500;2023-02-23T02:31:05;45.11;36.59;58.60;;
72686;Laerm;61365;52.162;4.500;2023-02-23T02:40:29;45.41;37.08;58.97;;
72686;Laerm;61365;52.162;4.500;2023-02-23T02:43:10;45.40;36.92;57.66;;
72686;Laerm;61365;52.162;4.500;2023-02-23T02:48:52;45.33;37.36;59.08;;
72686;Laerm;61365;52.162;4.500;2023-02-23T02:52:13;45.41;36.62;58.62;;
72686;Laerm;61365;52.162;4.500;2023-02-23T02:55:00;45.18;37.00;57.89;;
72686;Laerm;61365;52.162;4.500;2023-02-23T02:57:31;45.33;36.39;58.69;;
72686;Laerm;61365;52.162;4.500;2023-02-23T02:59:58;45.15;36.78;58.22;;
72686;Laerm;61365;52.162;4.500;2023-02-23T03:02:42;45.22;36.98;59.22;;
72686;Laerm;61365;52.162;4.500;2023-02-23T03:05:42;45.16;37.24;58.22;;
72686;Laerm;61365;52.162;4.500;2023-02-23T03:08:47;45.22;37.33;59.31;;
72686;Laerm;61365;52.162;4.500;2023-02-23T03:11:55;45.12;36.98;57.68;;
72686;Laerm;61365;52.162;4.500;2023-02-23T03:17:59;45.26;37.35;59.61;;
72686;Laerm;61365;52.162;4.500;2023-02-23T03:20:53;45.11;37.16;59.80;;
72686;Laerm;61365;52.162;4.500;2023-02-23T03:24:06;45.30;32.90;64.96;;
72686;Laerm;61365;52.162;4.500;2023-02-23T03:27:07;45.08;36.89;60.89;;
72686;Laerm;61365;52.162;4.500;2023-02-23T03:30:08;45.19;37.17;61.60;;
72686;Laerm;61365;52.162;4.500;2023-02-23T03:33:07;45.24;36.46;59.02;;
72686;Laerm;61365;52.162;4.500;2023-02-23T03:36:05;45.20;36.73;59.03;;
72686;Laerm;61365;52.162;4.500;2023-02-23T03:39:25;45.12;36.17;57.97;;
72686;Laerm;61365;52.162;4.500;2023-02-23T03:42:18;45.08;36.35;57.20;;
72686;Laerm;61365;52.162;4.500;2023-02-23T03:45:11;45.26;36.67;58.81;;
72686;Laerm;61365;52.162;4.500;2023-02-23T03:48:01;45.13;36.97;58.07;;
72686;Laerm;61365;52.162;4.500;2023-02-23T03:50:53;45.69;36.08;57.84;;
72686;Laerm;61365;52.162;4.500;2023-02-23T03:54:12;45.06;36.70;57.76;;
72686;Laerm;61365;52.162;4.500;2023-02-23T03:57:04;45.24;36.61;58.16;;
72686;Laerm;61365;52.162;4.500;2023-02-23T03:59:58;45.28;37.02;58.78;;
72686;Laerm;61365;52.162;4.500;2023-02-23T04:02:49;45.10;36.87;57.99;;
72686;Laerm;61365;52.162;4.500;2023-02-23T04:05:39;47.01;36.15;57.75;;
72686;Laerm;61365;52.162;4.500;2023-02-23T04:08:33;47.25;36.51;58.19;;
72686;Laerm;61365;52.162;4.500;2023-02-23T04:14:42;47.16;35.91;58.64;;
72686;Laerm;61365;52.162;4.500;2023-02-23T04:17:13;45.30;36.51;59.58;;
72686;Laerm;61365;52.162;4.500;2023-02-23T04:19:53;45.15;37.23;59.49;;
72686;Laerm;61365;52.162;4.500;2023-02-23T04:22:21;45.35;37.16;58.80;;
72686;Laerm;61365;52.162;4.500;2023-02-23T04:24:49;45.14;36.99;60.41;;
72686;Laerm;61365;52.162;4.500;2023-02-23T04:27:16;45.24;36.93;57.83;;
72686;Laerm;61365;52.162;4.500;2023-02-23T04:29:43;45.21;37.05;59.75;;
72686;Laerm;61365;52.162;4.500;2023-02-23T04:32:15;45.11;37.01;58.10;;
72686;Laerm;61365;52.162;4.500;2023-02-23T04:34:43;45.10;37.16;58.54;;
72686;Laerm;61365;52.162;4.500;2023-02-23T04:37:10;45.21;37.08;58.91;;
72686;Laerm;61365;52.162;4.500;2023-02-23T04:39:37;45.18;37.15;57.96;;
72686;Laerm;61365;52.162;4.500;2023-02-23T04:42:03;45.24;37.18;60.34;;
72686;Laerm;61365;52.162;4.500;2023-02-23T04:44:30;45.27;37.26;58.32;;
72686;Laerm;61365;52.162;4.500;2023-02-23T04:46:57;45.58;36.31;57.94;;
72686;Laerm;61365;52.162;4.500;2023-02-23T04:49:23;47.11;36.18;58.63;;
72686;Laerm;61365;52.162;4.500;2023-02-23T04:51:49;47.36;36.10;59.92;;
72686;Laerm;61365;52.162;4.500;2023-02-23T04:54:16;46.49;37.00;58.10;;
72686;Laerm;61365;52.162;4.500;2023-02-23T04:56:42;45.22;37.12;58.84;;
72686;Laerm;61365;52.162;4.500;2023-02-23T04:59:08;45.28;36.72;58.74;;
72686;Laerm;61365;52.162;4.500;2023-02-23T05:01:35;45.02;37.02;58.30;;
72686;Laerm;61365;52.162;4.500;2023-02-23T05:04:02;45.11;36.80;58.76;;
72686;Laerm;61365;52.162;4.500;2023-02-23T05:06:30;45.11;36.89;59.22;;
72686;Laerm;61365;52.162;4.500;2023-02-23T05:08:56;46.86;36.46;57.19;;
72686;Laerm;61365;52.162;4.500;2023-02-23T05:11:22;47.31;35.74;58.82;;
72686;Laerm;61365;52.162;4.500;2023-02-23T05:13:49;46.66;36.76;59.70;;
72686;Laerm;61365;52.162;4.500;2023-02-23T05:16:17;45.03;37.42;59.74;;
72686;Laerm;61365;52.162;4.500;2023-02-23T05:18:44;45.13;37.05;59.01;;
72686;Laerm;61365;52.162;4.500;2023-02-23T05:21:11;45.20;36.63;59.49;;
72686;Laerm;61365;52.162;4.500;2023-02-23T05:23:37;45.15;36.89;57.93;;
72686;Laerm;61365;52.162;4.500;2023-02-23T05:26:08;45.07;36.72;58.29;;
72686;Laerm;61365;52.162;4.500;2023-02-23T05:28:37;45.23;37.01;57.83;;
72686;Laerm;61365;52.162;4.500;2023-02-23T05:31:05;45.15;36.76;57.90;;
72686;Laerm;61365;52.162;4.500;2023-02-23T05:33:33;45.13;36.85;58.53;;
72686;Laerm;61365;52.162;4.500;2023-02-23T05:36:04;45.21;37.20;59.15;;
72686;Laerm;61365;52.162;4.500;2023-02-23T05:38:30;45.19;36.46;57.74;;
72686;Laerm;61365;52.162;4.500;2023-02-23T05:40:56;45.17;37.32;58.18;;
72686;Laerm;61365;52.162;4.500;2023-02-23T05:43:23;45.09;36.98;57.74;;
72686;Laerm;61365;52.162;4.500;2023-02-23T05:45:49;46.66;35.22;57.99;;
72686;Laerm;61365;52.162;4.500;2023-02-23T05:48:16;45.20;36.27;58.12;;
72686;Laerm;61365;52.162;4.500;2023-02-23T05:50:42;45.13;36.63;58.08;;
72686;Laerm;61365;52.162;4.500;2023-02-23T05:53:08;45.19;37.16;58.21;;
72686;Laerm;61365;52.162;4.500;2023-02-23T05:55:35;44.96;37.25;58.39;;
72686;Laerm;61365;52.162;4.500;2023-02-23T05:58:02;46.72;36.31;59.12;;
72686;Laerm;61365;52.162;4.500;2023-02-23T06:00:29;46.38;36.59;58.20;;
72686;Laerm;61365;52.162;4.500;2023-02-23T06:02:55;45.11;36.66;59.64;;
72686;Laerm;61365;52.162;4.500;2023-02-23T06:05:21;45.32;36.73;58.30;;
72686;Laerm;61365;52.162;4.500;2023-02-23T06:07:48;45.34;36.97;58.18;;
72686;Laerm;61365;52.162;4.500;2023-02-23T06:10:14;45.21;36.55;59.15;;
72686;Laerm;61365;52.162;4.500;2023-02-23T06:12:40;44.92;37.03;58.01;;
72686;Laerm;61365;52.162;4.500;2023-02-23T06:15:08;45.07;36.82;57.80;;
72686;Laerm;61365;52.162;4.500;2023-02-23T06:17:35;45.05;36.39;57.38;;
72686;Laerm;61365;52.162;4.500;2023-02-23T06:20:04;45.39;36.97;60.31;;
72686;Laerm;61365;52.162;4.500;2023-02-23T06:22:30;46.70;36.82;58.26;;
72686;Laerm;61365;52.162;4.500;2023-02-23T06:24:56;45.07;37.45;58.60;;
72686;Laerm;61365;52.162;4.500;2023-02-23T06:27:23;45.31;36.91;61.12;;
72686;Laerm;61365;52.162;4.500;2023-02-23T06:29:49;45.19;36.81;59.50;;
72686;Laerm;61365;52.162;4.500;2023-02-23T06:32:15;45.24;37.31;57.97;;
72686;Laerm;61365;52.162;4.500;2023-02-23T06:34:42;45.15;36.59;58.16;;
72686;Laerm;61365;52.162;4.500;2023-02-23T06:37:09;45.18;36.91;58.19;;
72686;Laerm;61365;52.162;4.500;2023-02-23T06:39:37;45.26;37.28;58.58;;
72686;Laerm;61365;52.162;4.500;2023-02-23T06:42:03;45.11;37.18;57.42;;
72686;Laerm;61365;52.162;4.500;2023-02-23T06:44:29;45.13;36.38;57.78;;
72686;Laerm;61365;52.162;4.500;2023-02-23T06:46:56;45.09;36.78;58.92;;
72686;Laerm;61365;52.162;4.500;2023-02-23T06:49:22;45.25;37.17;59.87;;
72686;Laerm;61365;52.162;4.500;2023-02-23T06:51:48;45.05;36.46;58.22;;
72686;Laerm;61365;52.162;4.500;2023-02-23T06:54:15;45.21;36.83;57.13;;
72686;Laerm;61365;52.162;4.500;2023-02-23T06:56:41;45.11;36.62;58.77;;
72686;Laerm;61365;52.162;4.500;2023-02-23T06:59:07;45.11;36.97;57.62;;
72686;Laerm;61365;52.162;4.500;2023-02-23T07:01:33;47.20;35.92;57.43;;
72686;Laerm;61365;52.162;4.500;2023-02-23T07:04:00;47.17;36.28;59.12;;
72686;Laerm;61365;52.162;4.500;2023-02-23T07:06:26;47.33;37.07;58.98;;
72686;Laerm;61365;52.162;4.500;2023-02-23T07:08:57;47.42;36.46;58.87;;
72686;Laerm;61365;52.162;4.500;2023-02-23T07:11:23;47.04;36.17;59.13;;
72686;Laerm;61365;52.162;4.500;2023-02-23T07:13:49;45.19;36.24;59.46;;
72686;Laerm;61365;52.162;4.500;2023-02-23T07:16:16;45.08;37.22;59.06;;
72686;Laerm;61365;52.162;4.500;2023-02-23T07:18:42;45.17;36.46;58.35;;
72686;Laerm;61365;52.162;4.500;2023-02-23T07:21:08;45.41;37.57;58.77;;
72686;Laerm;61365;52.162;4.500;2023-02-23T07:23:35;45.20;37.14;58.61;;
72686;Laerm;61365;52.162;4.500;2023-02-23T07:26:01;45.12;36.66;58.07;;
72686;Laerm;61365;52.162;4.500;2023-02-23T07:28:27;45.11;37.01;58.88;;
72686;Laerm;61365;52.162;4.500;2023-02-23T07:30:55;45.14;36.68;57.99;;
72686;Laerm;61365;52.162;4.500;2023-02-23T07:33:23;45.15;37.23;58.09;;
72686;Laerm;61365;52.162;4.500;2023-02-23T07:35:50;45.32;37.28;58.79;;
72686;Laerm;61365;52.162;4.500;2023-02-23T07:38:17;45.33;35.34;64.02;;
72686;Laerm;61365;52.162;4.500;2023-02-23T07:40:44;45.19;36.84;58.25;;
72686;Laerm;61365;52.162;4.500;2023-02-23T07:43:10;45.15;37.40;57.44;;
72686;Laerm;61365;52.162;4.500;2023-02-23T07:45:36;45.21;37.20;57.93;;
72686;Laerm;61365;52.162;4.500;2023-02-23T07:48:03;46.50;36.47;59.77;;
72686;Laerm;61365;52.162;4.500;2023-02-23T07:50:30;46.52;36.54;57.95;;
72686;Laerm;61365;52.162;4.500;2023-02-23T07:52:56;45.25;36.64;59.84;;
72686;Laerm;61365;52.162;4.500;2023-02-23T07:55:23;45.44;37.31;59.91;;
72686;Laerm;61365;52.162;4.500;2023-02-23T07:57:49;45.33;37.36;58.56;;
72686;Laerm;61365;52.162;4.500;2023-02-23T08:00:16;45.37;37.23;58.69;;
72686;Laerm;61365;52.162;4.500;2023-02-23T08:02:43;45.36;37.08;57.71;;
72686;Laerm;61365;52.162;4.500;2023-02-23T08:05:10;45.43;37.29;58.95;;
72686;Laerm;61365;52.162;4.500;2023-02-23T08:07:36;45.30;36.85;57.82;;
72686;Laerm;61365;52.162;4.500;2023-02-23T08:10:03;47.25;36.02;59.15;;
72686;Laerm;61365;52.162;4.500;2023-02-23T08:12:32;47.63;36.39;57.56;;
72686;Laerm;61365;52.162;4.500;2023-02-23T08:14:59;47.41;35.47;63.29;;
72686;Laerm;61365;52.162;4.500;2023-02-23T08:17:25;45.64;37.14;59.21;;
72686;Laerm;61365;52.162;4.500;2023-02-23T08:19:52;45.38;36.56;58.85;;
72686;Laerm;61365;52.162;4.500;2023-02-23T08:22:18;45.55;37.56;57.77;;
72686;Laerm;61365;52.162;4.500;2023-02-23T08:24:45;45.33;37.32;59.80;;
72686;Laerm;61365;52.162;4.500;2023-02-23T08:27:11;45.30;37.25;58.66;;
72686;Laerm;61365;52.162;4.500;2023-02-23T08:29:39;45.60;37.49;59.50;;
72686;Laerm;61365;52.162;4.500;2023-02-23T08:32:05;45.10;37.34;57.37;;
72686;Laerm;61365;52.162;4.500;2023-02-23T08:34:37;45.46;36.81;58.51;;
72686;Laerm;61365;52.162;4.500;2023-02-23T08:37:04;45.40;37.45;58.37;;
72686;Laerm;61365;52.162;4.500;2023-02-23T08:39:31;45.38;37.29;58.15;;
72686;Laerm;61365;52.162;4.500;2023-02-23T08:41:57;45.26;37.39;59.86;;
72686;Laerm;61365;52.162;4.500;2023-02-23T08:44:24;45.28;37.47;58.01;;
72686;Laerm;61365;52.162;4.500;2023-02-23T08:46:50;45.36;37.39;58.66;;
72686;Laerm;61365;52.162;4.500;2023-02-23T08:49:19;45.35;37.24;57.57;;
72686;Laerm;61365;52.162;4.500;2023-02-23T08:51:45;45.33;37.50;58.22;;
72686;Laerm;61365;52.162;4.500;2023-02-23T08:54:12;45.47;37.04;58.81;;
72686;Laerm;61365;52.162;4.500;2023-02-23T08:56:41;45.37;37.42;58.00;;
72686;Laerm;61365;52.162;4.500;2023-02-23T08:59:08;45.56;36.86;58.82;;
72686;Laerm;61365;52.162;4.500;2023-02-23T09:01:35;45.46;37.10;57.81;;
72686;Laerm;61365;52.162;4.500;2023-02-23T09:04:04;45.31;37.46;58.43;;
72686;Laerm;61365;52.162;4.500;2023-02-23T09:06:31;45.46;37.69;57.96;;
72686;Laerm;61365;52.162;4.500;2023-02-23T09:09:01;45.62;37.12;58.79;;
72686;Laerm;61365;52.162;4.500;2023-02-23T09:11:27;47.20;36.86;57.97;;
72686;Laerm;61365;52.162;4.500;2023-02-23T09:13:54;47.51;36.33;58.19;;
72686;Laerm;61365;52.162;4.500;2023-02-23T09:16:20;46.27;35.54;58.24;;
72686;Laerm;61365;52.162;4.500;2023-02-23T09:18:46;45.36;37.00;59.71;;
72686;Laerm;61365;52.162;4.500;2023-02-23T09:21:17;45.42;37.27;59.61;;
72686;Laerm;61365;52.162;4.500;2023-02-23T09:23:46;45.39;37.57;57.60;;
72686;Laerm;61365;52.162;4.500;2023-02-23T09:26:15;45.47;36.91;58.61;;
72686;Laerm;61365;52.162;4.500;2023-02-23T09:28:44;45.33;36.87;58.41;;
72686;Laerm;61365;52.162;4.500;2023-02-23T09:31:15;45.98;36.79;59.28;;
72686;Laerm;61365;52.162;4.500;2023-02-23T09:33:42;47.49;36.67;56.87;;
72686;Laerm;61365;52.162;4.500;2023-02-23T09:36:13;47.53;36.26;57.82;;
72686;Laerm;61365;52.162;4.500;2023-02-23T09:38:45;47.31;35.96;58.07;;
72686;Laerm;61365;52.162;4.500;2023-02-23T09:47:44;45.39;36.77;58.55;;
72686;Laerm;61365;52.162;4.500;2023-02-23T09:50:24;45.38;37.08;58.75;;
72686;Laerm;61365;52.162;4.500;2023-02-23T09:53:02;45.26;37.39;58.59;;
72686;Laerm;61365;52.162;4.500;2023-02-23T09:55:31;45.36;37.46;60.61;;
72686;Laerm;61365;52.162;4.500;2023-02-23T09:58:22;45.21;37.41;58.50;;
72686;Laerm;61365;52.162;4.500;2023-02-23T10:01:20;45.48;37.09;57.30;;
72686;Laerm;61365;52.162;4.500;2023-02-23T10:03:58;45.37;36.88;60.15;;
72686;Laerm;61365;52.162;4.500;2023-02-23T10:06:27;45.21;36.97;58.75;;
72686;Laerm;61365;52.162;4.500;2023-02-23T10:11:51;45.28;37.10;57.59;;
72686;Laerm;61365;52.162;4.500;2023-02-23T10:17:34;45.17;36.27;57.23;;
72686;Laerm;61365;52.162;4.500;2023-02-23T10:20:31;45.18;37.19;57.31;;
72686;Laerm;61365;52.162;4.500;2023-02-23T10:23:09;47.00;36.27;58.78;;
72686;Laerm;61365;52.162;4.500;2023-02-23T10:25:45;46.58;36.62;58.08;;
72686;Laerm;61365;52.162;4.500;2023-02-23T10:28:18;45.46;36.93;58.75;;
72686;Laerm;61365;52.162;4.500;2023-02-23T10:30:48;45.33;37.17;57.62;;
72686;Laerm;61365;52.162;4.500;2023-02-23T10:33:37;45.30;37.17;58.11;;
72686;Laerm;61365;52.162;4.500;2023-02-23T10:38:53;45.15;36.17;56.98;;
72686;Laerm;61365;52.162;4.500;2023-02-23T10:41:20;45.19;37.12;57.40;;
72686;Laerm;61365;52.162;4.500;2023-02-23T10:43:46;45.24;37.01;58.03;;
72686;Laerm;61365;52.162;4.500;2023-02-23T10:46:21;46.30;36.33;58.24;;
72686;Laerm;61365;52.162;4.500;2023-02-23T10:48:53;47.43;36.01;57.73;;
72686;Laerm;61365;52.162;4.500;2023-02-23T10:51:29;47.16;34.94;64.09;;
72686;Laerm;61365;52.162;4.500;2023-02-23T10:53:57;47.24;35.94;58.06;;
72686;Laerm;61365;52.162;4.500;2023-02-23T10:56:24;46.98;36.85;57.61;;
72686;Laerm;61365;52.162;4.500;2023-02-23T10:58:54;45.32;37.55;57.46;;
72686;Laerm;61365;52.162;4.500;2023-02-23T11:01:50;45.26;36.88;57.74;;
72686;Laerm;61365;52.162;4.500;2023-02-23T11:04:27;45.21;36.75;57.92;;
72686;Laerm;61365;52.162;4.500;2023-02-23T11:07:15;45.24;37.43;58.21;;
72686;Laerm;61365;52.162;4.500;2023-02-23T11:09:42;45.26;37.00;57.60;;
72686;Laerm;61365;52.162;4.500;2023-02-23T11:12:37;45.29;37.18;57.40;;
72686;Laerm;61365;52.162;4.500;2023-02-23T11:15:32;45.23;37.03;57.36;;
72686;Laerm;61365;52.162;4.500;2023-02-23T11:18:03;46.28;36.32;57.31;;
72686;Laerm;61365;52.162;4.500;2023-02-23T11:20:37;47.21;36.02;57.94;;
72686;Laerm;61365;52.162;4.500;2023-02-23T11:23:14;47.35;35.85;58.41;;
72686;Laerm;61365;52.162;4.500;2023-02-23T11:25:44;47.55;35.90;57.95;;
72686;Laerm;61365;52.162;4.500;2023-02-23T11:28:20;47.33;36.55;57.87;;
72686;Laerm;61365;52.162;4.500;2023-02-23T11:30:49;46.80;35.95;57.40;;
72686;Laerm;61365;52.162;4.500;2023-02-23T11:33:23;45.52;36.99;59.00;;
72686;Laerm;61365;52.162;4.500;2023-02-23T11:35:58;45.29;37.11;57.20;;
72686;Laerm;61365;52.162;4.500;2023-02-23T11:38:28;45.35;36.77;57.91;;
72686;Laerm;61365;52.162;4.500;2023-02-23T11:41:02;45.87;36.93;57.33;;
72686;Laerm;61365;52.162;4.500;2023-02-23T11:43:30;47.44;36.71;57.12;;
72686;Laerm;61365;52.162;4.500;2023-02-23T11:45:59;45.77;36.53;57.66;;
72686;Laerm;61365;52.162;4.500;2023-02-23T11:51:47;45.38;37.01;60.28;;
72686;Laerm;61365;52.162;4.500;2023-02-23T11:54:32;45.46;37.40;58.52;;
72686;Laerm;61365;52.162;4.500;2023-02-23T11:57:00;45.18;37.38;56.51;;
72686;Laerm;61365;52.162;4.500;2023-02-23T11:59:36;45.60;37.28;57.92;;
72686;Laerm;61365;52.162;4.500;2023-02-23T12:02:26;45.37;37.36;58.33;;
72686;Laerm;61365;52.162;4.500;2023-02-23T12:05:17;45.35;36.66;57.51;;
72686;Laerm;61365;52.162;4.500;2023-02-23T12:11:04;45.44;36.69;58.34;;
72686;Laerm;61365;52.162;4.500;2023-02-23T12:16:23;45.35;36.91;58.46;;
72686;Laerm;61365;52.162;4.500;2023-02-23T12:22:02;45.35;36.95;57.22;;
72686;Laerm;61365;52.162;4.500;2023-02-23T12:28:12;45.48;36.85;61.83;;
72686;Laerm;61365;52.162;4.500;2023-02-23T12:30:57;45.45;37.16;58.98;;
72686;Laerm;61365;52.162;4.500;2023-02-23T12:33:41;45.43;37.10;57.38;;
72686;Laerm;61365;52.162;4.500;2023-02-23T12:39:28;45.54;37.84;57.76;;
72686;Laerm;61365;52.162;4.500;2023-02-23T12:42:39;45.69;37.84;60.81;;
72686;Laerm;61365;52.162;4.500;2023-02-23T12:45:22;45.62;37.66;57.98;;
72686;Laerm;61365;52.162;4.500;2023-02-23T12:48:05;45.66;37.99;57.78;;
72686;Laerm;61365;52.162;4.500;2023-02-23T12:50:44;45.67;38.04;58.20;;
72686;Laerm;61365;52.162;4.500;2023-02-23T12:53:38;45.62;37.85;58.29;;
72686;Laerm;61365;52.162;4.500;2023-02-23T13:02:04;45.67;37.56;58.80;;
72686;Laerm;61365;52.162;4.500;2023-02-23T13:05:32;45.42;36.92;57.31;;
72686;Laerm;61365;52.162;4.500;2023-02-23T13:08:24;45.38;37.29;57.06;;
72686;Laerm;61365;52.162;4.500;2023-02-23T13:13:59;45.43;37.08;58.75;;
72686;Laerm;61365;52.162;4.500;2023-02-23T13:16:38;46.32;36.93;57.77;;
72686;Laerm;61365;52.162;4.500;2023-02-23T13:19:29;47.38;36.68;57.85;;
72686;Laerm;61365;52.162;4.500;2023-02-23T13:22:20;47.53;35.67;56.89;;
72686;Laerm;61365;52.162;4.500;2023-02-23T13:24:52;47.41;34.82;57.67;;
72686;Laerm;61365;52.162;4.500;2023-02-23T13:27:38;47.44;35.60;60.87;;
72686;Laerm;61365;52.162;4.500;2023-02-23T13:30:11;47.51;36.16;58.21;;
72686;Laerm;61365;52.162;4.500;2023-02-23T13:32:38;47.42;37.01;58.67;;
72686;Laerm;61365;52.162;4.500;2023-02-23T13:35:13;47.46;34.66;58.70;;
72686;Laerm;61365;52.162;4.500;2023-02-23T13:37:52;47.34;36.39;58.18;;
72686;Laerm;61365;52.162;4.500;2023-02-23T13:43:14;45.39;37.34;57.85;;
72686;Laerm;61365;52.162;4.500;2023-02-23T13:51:51;45.37;36.56;58.58;;
72686;Laerm;61365;52.162;4.500;2023-02-23T13:54:26;45.27;37.08;58.45;;
72686;Laerm;61365;52.162;4.500;2023-02-23T13:57:02;45.49;36.90;57.41;;
72686;Laerm;61365;52.162;4.500;2023-02-23T13:59:37;45.24;37.35;57.14;;
72686;Laerm;61365;52.162;4.500;2023-02-23T14:02:33;46.27;35.53;56.91;;
72686;Laerm;61365;52.162;4.500;2023-02-23T14:05:21;45.35;36.71;57.97;;
72686;Laerm;61365;52.162;4.500;2023-02-23T14:08:03;45.40;37.30;57.61;;
72686;Laerm;61365;52.162;4.500;2023-02-23T14:10:39;45.41;37.22;58.00;;
72686;Laerm;61365;52.162;4.500;2023-02-23T14:16:14;45.41;37.24;59.25;;
72686;Laerm;61365;52.162;4.500;2023-02-23T14:21:58;46.57;35.78;58.15;;
72686;Laerm;61365;52.162;4.500;2023-02-23T14:24:27;47.33;36.58;58.24;;
72686;Laerm;61365;52.162;4.500;2023-02-23T14:29:30;47.13;36.07;59.93;;
72686;Laerm;61365;52.162;4.500;2023-02-23T14:34:55;47.23;36.73;56.73;;
72686;Laerm;61365;52.162;4.500;2023-02-23T14:37:39;47.19;36.18;57.82;;
72686;Laerm;61365;52.162;4.500;2023-02-23T14:40:14;47.41;36.39;57.56;;
72686;Laerm;61365;52.162;4.500;2023-02-23T14:42:49;47.59;35.10;56.75;;
72686;Laerm;61365;52.162;4.500;2023-02-23T14:45:27;46.86;34.68;58.74;;
72686;Laerm;61365;52.162;4.500;2023-02-23T14:48:01;45.33;37.21;57.63;;
72686;Laerm;61365;52.162;4.500;2023-02-23T14:50:39;45.25;37.27;56.82;;
72686;Laerm;61365;52.162;4.500;2023-02-23T14:53:17;45.49;37.53;60.15;;
72686;Laerm;61365;52.162;4.500;2023-02-23T14:55:44;45.44;37.36;58.26;;
72686;Laerm;61365;52.162;4.500;2023-02-23T14:58:28;45.47;37.44;58.04;;
72686;Laerm;61365;52.162;4.500;2023-02-23T15:00:55;45.31;37.07;58.88;;
72686;Laerm;61365;52.162;4.500;2023-02-23T15:03:22;45.31;37.48;58.78;;
72686;Laerm;61365;52.162;4.500;2023-02-23T15:05:59;45.43;36.77;57.66;;
72686;Laerm;61365;52.162;4.500;2023-02-23T15:08:29;45.50;36.99;60.22;;
72686;Laerm;61365;52.162;4.500;2023-02-23T15:13:35;45.46;36.91;58.74;;
72686;Laerm;61365;52.162;4.500;2023-02-23T15:16:10;45.38;36.98;58.23;;
72686;Laerm;61365;52.162;4.500;2023-02-23T15:18:42;45.43;37.34;58.53;;
72686;Laerm;61365;52.162;4.500;2023-02-23T15:21:19;45.49;37.48;60.58;;
72686;Laerm;61365;52.162;4.500;2023-02-23T15:23:50;45.41;37.30;58.20;;
72686;Laerm;61365;52.162;4.500;2023-02-23T15:26:27;45.37;37.29;57.77;;
72686;Laerm;61365;52.162;4.500;2023-02-23T15:29:32;45.44;36.99;58.99;;
72686;Laerm;61365;52.162;4.500;2023-02-23T15:32:18;45.42;37.03;57.89;;
72686;Laerm;61365;52.162;4.500;2023-02-23T15:34:46;45.39;37.05;57.98;;
72686;Laerm;61365;52.162;4.500;2023-02-23T15:37:36;45.42;36.99;59.34;;
72686;Laerm;61365;52.162;4.500;2023-02-23T15:40:16;45.32;37.28;58.81;;
72686;Laerm;61365;52.162;4.500;2023-02-23T15:42:52;45.40;37.41;58.84;;
72686;Laerm;61365;52.162;4.500;2023-02-23T15:47:59;47.14;35.53;58.44;;
72686;Laerm;61365;52.162;4.500;2023-02-23T15:50:33;47.43;36.73;59.88;;
72686;Laerm;61365;52.162;4.500;2023-02-23T15:53:04;46.31;36.83;62.32;;
72686;Laerm;61365;52.162;4.500;2023-02-23T15:55:42;45.57;37.56;59.28;;
72686;Laerm;61365;52.162;4.500;2023-02-23T15:58:28;45.40;36.90;58.68;;